This is the latest recevied weather packets stored in our database for station/object GW1491. If no packets are shown the sender has not sent any weather packets the latest 10 day(s).
| Time | Temp. | Humidity | Pressure | Rain* | Wind** | Luminosity | Snow |
|---|---|---|---|---|---|---|---|
| 1777885574 | 10° C | 75% | 1013.2 hPa | 0 mm | - | - | - |
| 1777884142 | 10° C | 74% | 1013.2 hPa | 0 mm | - | - | - |
| 1777882695 | 10° C | 73% | 1013.2 hPa | 0 mm | - | - | - |
| 1777882336 | 10° C | 74% | 1013.2 hPa | 0 mm | - | - | - |
| 1777880176 | 10.56° C | 71% | 1013.2 hPa | 0 mm | - | - | - |
| 1777873000 | 10° C | 67% | 1014.5 hPa | 0 mm | - | - | - |
| 1777868671 | 10° C | 65% | 1014.5 hPa | 0 mm | - | - | - |
| 1777867605 | 10° C | 66% | 1014.5 hPa | 0 mm | - | - | - |
| 1777865773 | 10.56° C | 64% | 1014.9 hPa | 0 mm | - | - | - |
| 1777865436 | 10° C | 64% | 1014.9 hPa | 0 mm | - | - | - |
| 1777863254 | 10.56° C | 61% | 1015.2 hPa | 0 mm | - | - | - |
| 1777862540 | 11.11° C | 59% | 1014.9 hPa | 0 mm | - | - | - |
| 1777861827 | 11.67° C | 58% | 1015.2 hPa | 0 mm | - | - | - |
| 1777861114 | 11.67° C | 56% | 1015.2 hPa | 0 mm | - | - | - |
| 1777860380 | 12.22° C | 55% | 1014.9 hPa | 0 mm | - | - | - |
| 1777857134 | 13.33° C | 49% | 1014.9 hPa | 0 mm | - | - | - |
| 1777856079 | 13.33° C | 49% | 1014.9 hPa | 0 mm | - | - | - |
| 1777849972 | 14.44° C | 47% | 1014.9 hPa | 0 mm | - | - | - |
| 1777848143 | 15° C | 46% | 1014.9 hPa | 0 mm | - | - | - |
| 1777836981 | 16.11° C | 46% | 1016.5 hPa | 0 mm | - | - | - |
| 1777836644 | 15.56° C | 42% | 1016.9 hPa | 0 mm | - | - | - |
| 1777832334 | 15.56° C | 43% | 1017.9 hPa | 0 mm | - | - | - |
| 1777830500 | 15° C | 43% | 1018.2 hPa | 0 mm | - | - | - |
| 1777824410 | 13.33° C | 53% | 1019.3 hPa | 0 mm | - | - | - |
| 1777823677 | 12.78° C | 50% | 1019.3 hPa | 0 mm | - | - | - |
* Rain since midnight (hover to see other rain measurements)
** Current wind speed in m/s (hover to see current wind gust speed)